createdAt,value
2018-07-07T00:00:52.661Z,958.57
2018-07-07T00:01:52.655Z,958.61
2018-07-07T00:02:52.646Z,958.65
2018-07-07T00:03:52.638Z,958.65
2018-07-07T00:04:52.631Z,958.64
2018-07-07T00:05:52.624Z,958.65
2018-07-07T00:06:52.617Z,958.62
2018-07-07T00:07:52.611Z,958.62
2018-07-07T00:08:52.602Z,958.66
2018-07-07T00:09:52.595Z,958.65
2018-07-07T00:10:52.587Z,958.66
2018-07-07T00:11:52.580Z,958.64
2018-07-07T00:12:52.574Z,958.66
2018-07-07T00:13:52.568Z,958.63
2018-07-07T00:14:52.558Z,958.61
2018-07-07T00:15:52.551Z,958.6
2018-07-07T00:16:52.548Z,958.64
2018-07-07T00:17:52.537Z,958.64
2018-07-07T00:18:52.529Z,958.64
2018-07-07T00:19:52.522Z,958.62
2018-07-07T00:20:52.514Z,958.66
2018-07-07T00:21:52.506Z,958.64
2018-07-07T00:22:52.502Z,958.65
2018-07-07T00:23:52.494Z,958.66
2018-07-07T00:24:52.487Z,958.66
2018-07-07T00:25:52.478Z,958.67
2018-07-07T00:26:52.469Z,958.71
2018-07-07T00:27:52.470Z,958.69
2018-07-07T00:28:52.453Z,958.69
2018-07-07T00:29:52.447Z,958.68
2018-07-07T00:30:52.438Z,958.69
2018-07-07T00:31:52.430Z,958.71
2018-07-07T00:32:52.424Z,958.74
2018-07-07T00:33:52.416Z,958.72
2018-07-07T00:34:52.407Z,958.71
2018-07-07T00:35:52.400Z,958.75
2018-07-07T00:36:52.397Z,958.71
2018-07-07T00:37:52.386Z,958.73
2018-07-07T00:38:52.377Z,958.74
2018-07-07T00:39:52.370Z,958.72
2018-07-07T00:40:52.362Z,958.74
2018-07-07T00:41:52.354Z,958.75
2018-07-07T00:42:52.346Z,958.74
2018-07-07T00:43:52.339Z,958.77
2018-07-07T00:44:52.331Z,958.75
2018-07-07T00:45:52.322Z,958.76
2018-07-07T00:46:52.316Z,958.75
2018-07-07T00:47:52.307Z,958.75
2018-07-07T00:48:52.300Z,958.75
2018-07-07T00:49:52.291Z,958.75
2018-07-07T00:50:52.283Z,958.78
2018-07-07T00:51:52.276Z,958.78
2018-07-07T00:52:52.271Z,958.76
2018-07-07T00:53:52.259Z,958.78
2018-07-07T00:54:52.252Z,958.78
2018-07-07T00:55:52.245Z,958.76
2018-07-07T00:56:52.235Z,958.79
2018-07-07T00:57:52.228Z,958.8
2018-07-07T00:58:52.220Z,958.8
2018-07-07T00:59:52.212Z,958.82
2018-07-07T01:00:52.208Z,958.82
2018-07-07T01:01:52.196Z,958.86
2018-07-07T01:02:52.188Z,958.83
2018-07-07T01:03:52.181Z,958.85
2018-07-07T01:04:52.171Z,958.83
2018-07-07T01:05:52.164Z,958.78
2018-07-07T01:06:52.157Z,958.82
2018-07-07T01:07:52.149Z,958.81
2018-07-07T01:08:52.140Z,958.81
2018-07-07T01:09:52.133Z,958.84
2018-07-07T01:10:52.125Z,958.82
2018-07-07T01:11:52.119Z,958.87
2018-07-07T01:12:52.113Z,958.84
2018-07-07T01:13:52.101Z,958.85
2018-07-07T01:14:52.095Z,958.88
2018-07-07T01:15:52.085Z,958.89
2018-07-07T01:16:52.078Z,958.87
2018-07-07T01:17:52.071Z,958.87
2018-07-07T01:18:52.059Z,958.84
2018-07-07T01:19:52.051Z,958.88
2018-07-07T01:20:52.045Z,958.89
2018-07-07T01:21:52.035Z,958.86
2018-07-07T01:22:52.026Z,958.88
2018-07-07T01:23:52.016Z,958.87
2018-07-07T01:24:52.009Z,958.87
2018-07-07T01:25:51.998Z,958.87
2018-07-07T01:26:51.989Z,958.87
2018-07-07T01:27:51.984Z,958.91
2018-07-07T01:28:51.976Z,958.92
2018-07-07T01:29:51.964Z,958.94
2018-07-07T01:30:51.954Z,958.91
2018-07-07T01:31:51.947Z,958.93
2018-07-07T01:32:51.939Z,958.89
2018-07-07T01:33:51.928Z,958.88
2018-07-07T01:34:51.920Z,958.91
2018-07-07T01:35:51.911Z,958.93
2018-07-07T01:36:51.908Z,958.92
2018-07-07T01:37:52.033Z,958.93
2018-07-07T01:38:51.886Z,958.95
2018-07-07T01:39:51.876Z,958.93
2018-07-07T01:40:51.867Z,958.97
2018-07-07T01:41:51.861Z,958.97
2018-07-07T01:42:51.850Z,958.95
2018-07-07T01:43:51.841Z,958.96
2018-07-07T01:44:51.832Z,958.94
2018-07-07T01:45:51.823Z,958.95
2018-07-07T01:46:51.814Z,958.9
2018-07-07T01:47:51.805Z,958.93
2018-07-07T01:48:51.797Z,958.9
2018-07-07T01:49:51.788Z,958.91
2018-07-07T01:50:51.779Z,958.92
2018-07-07T01:51:51.769Z,958.95
2018-07-07T01:52:51.761Z,958.95
2018-07-07T01:53:51.753Z,958.96
2018-07-07T01:54:51.745Z,958.99
2018-07-07T01:55:51.734Z,958.96
2018-07-07T01:56:51.725Z,958.96
2018-07-07T01:57:51.717Z,958.99
2018-07-07T01:58:51.707Z,958.96
2018-07-07T01:59:51.698Z,959.01
2018-07-07T02:00:51.689Z,959
2018-07-07T02:01:51.680Z,958.98
2018-07-07T02:02:51.670Z,959
2018-07-07T02:03:51.662Z,959
2018-07-07T02:04:51.653Z,959
2018-07-07T02:05:51.644Z,959
2018-07-07T02:06:51.635Z,959.01
2018-07-07T02:07:51.626Z,958.95
2018-07-07T02:08:51.616Z,958.96
2018-07-07T02:09:51.607Z,958.94
2018-07-07T02:10:51.597Z,959
2018-07-07T02:11:51.589Z,958.96
2018-07-07T02:12:51.579Z,958.95
2018-07-07T02:13:51.570Z,958.96
2018-07-07T02:14:51.560Z,958.94
2018-07-07T02:15:51.551Z,958.98
2018-07-07T02:16:51.542Z,958.96
2018-07-07T02:17:51.531Z,958.97
2018-07-07T02:18:51.567Z,958.95
2018-07-07T02:19:51.514Z,958.95
2018-07-07T02:20:51.504Z,958.99
2018-07-07T02:21:51.494Z,958.97
2018-07-07T02:22:51.485Z,958.95
2018-07-07T02:23:51.476Z,958.95
2018-07-07T02:24:51.466Z,958.97
2018-07-07T02:25:51.460Z,958.96
2018-07-07T02:26:51.449Z,958.94
2018-07-07T02:27:51.439Z,958.94
2018-07-07T02:28:51.429Z,958.94
2018-07-07T02:29:51.420Z,958.95
2018-07-07T02:30:51.416Z,958.98
2018-07-07T02:31:51.401Z,958.97
2018-07-07T02:32:51.392Z,958.93
2018-07-07T02:33:51.383Z,958.95
2018-07-07T02:34:51.379Z,958.96
2018-07-07T02:35:51.364Z,958.97
2018-07-07T02:36:51.355Z,959.01
2018-07-07T02:37:51.346Z,959
2018-07-07T02:38:51.337Z,959
2018-07-07T02:39:51.329Z,959.04
2018-07-07T02:40:51.318Z,959.01
2018-07-07T02:41:51.309Z,959.06
2018-07-07T02:42:51.302Z,959.08
2018-07-07T02:43:51.289Z,959.09
2018-07-07T02:44:51.280Z,959.06
2018-07-07T02:45:51.274Z,959.05
2018-07-07T02:46:51.263Z,959.11
2018-07-07T02:47:51.252Z,959.08
2018-07-07T02:48:51.242Z,959.02
2018-07-07T02:49:51.232Z,959.06
2018-07-07T02:50:51.222Z,959.05
2018-07-07T02:51:51.212Z,959.04
2018-07-07T02:52:51.212Z,959
2018-07-07T02:53:51.193Z,959.05
2018-07-07T02:54:51.183Z,959.05
2018-07-07T02:55:51.174Z,959.06
2018-07-07T02:56:51.166Z,959.08
2018-07-07T02:57:51.154Z,959.07
2018-07-07T02:58:51.144Z,959.06
2018-07-07T02:59:51.136Z,959.08
2018-07-07T03:00:51.125Z,959.08
2018-07-07T03:01:51.114Z,959.08
2018-07-07T03:02:51.105Z,959.11
2018-07-07T03:03:51.096Z,959.08
2018-07-07T03:04:51.087Z,959.09
2018-07-07T03:05:51.076Z,959.07
2018-07-07T03:06:51.065Z,959.09
2018-07-07T03:07:51.057Z,959.12
2018-07-07T03:08:51.045Z,959.12
2018-07-07T03:09:51.035Z,959.14
2018-07-07T03:10:51.027Z,959.19
2018-07-07T03:11:51.028Z,959.18
2018-07-07T03:12:51.005Z,959.1
2018-07-07T03:13:50.997Z,959.13
2018-07-07T03:14:50.986Z,959.11
2018-07-07T03:15:50.974Z,959.15
2018-07-07T03:16:50.965Z,959.18
2018-07-07T03:17:50.961Z,959.14
2018-07-07T03:18:50.946Z,959.2
2018-07-07T03:19:50.934Z,959.22
2018-07-07T03:20:50.925Z,959.2
2018-07-07T03:21:50.917Z,959.21
2018-07-07T03:22:50.905Z,959.24
2018-07-07T03:23:50.896Z,959.24
2018-07-07T03:24:50.886Z,959.23
2018-07-07T03:25:50.875Z,959.2
2018-07-07T03:26:50.865Z,959.25
2018-07-07T03:27:50.858Z,959.25
2018-07-07T03:28:50.846Z,959.24
2018-07-07T03:29:50.836Z,959.3
2018-07-07T03:30:50.826Z,959.3
2018-07-07T03:31:50.817Z,959.33
2018-07-07T03:32:50.807Z,959.34
2018-07-07T03:33:50.797Z,959.33
2018-07-07T03:34:50.786Z,959.34
2018-07-07T03:35:50.777Z,959.33
2018-07-07T03:36:50.766Z,959.34
2018-07-07T03:37:50.756Z,959.31
2018-07-07T03:38:50.746Z,959.39
2018-07-07T03:39:50.739Z,959.36
2018-07-07T03:40:50.727Z,959.38
2018-07-07T03:41:50.716Z,959.36
2018-07-07T03:42:50.709Z,959.36
2018-07-07T03:43:50.696Z,959.36
2018-07-07T03:44:50.685Z,959.38
2018-07-07T03:45:50.675Z,959.38
2018-07-07T03:46:50.665Z,959.37
2018-07-07T03:47:50.656Z,959.37
2018-07-07T03:48:50.647Z,959.35
2018-07-07T03:49:50.635Z,959.38
2018-07-07T03:50:50.625Z,959.37
2018-07-07T03:51:50.615Z,959.36
2018-07-07T03:52:50.604Z,959.35
2018-07-07T03:53:50.594Z,959.38
2018-07-07T03:54:50.583Z,959.4
2018-07-07T03:55:50.573Z,959.39
2018-07-07T03:56:50.569Z,959.39
2018-07-07T03:57:50.553Z,959.4
2018-07-07T03:58:50.590Z,959.39
2018-07-07T03:59:50.531Z,959.43
2018-07-07T04:00:50.522Z,959.43
2018-07-07T04:01:50.511Z,959.42
2018-07-07T04:02:50.502Z,959.44
2018-07-07T04:03:50.491Z,959.42
2018-07-07T04:04:50.481Z,959.42
2018-07-07T04:05:50.476Z,959.4
2018-07-07T04:06:50.464Z,959.4
2018-07-07T04:07:50.450Z,959.4
2018-07-07T04:08:50.442Z,959.42
2018-07-07T04:09:50.430Z,959.38
2018-07-07T04:10:50.422Z,959.38
2018-07-07T04:11:50.409Z,959.35
2018-07-07T04:12:50.399Z,959.38
2018-07-07T04:13:50.389Z,959.38
2018-07-07T04:14:50.379Z,959.41
2018-07-07T04:15:50.374Z,959.35
2018-07-07T04:16:50.358Z,959.37
2018-07-07T04:17:50.347Z,959.36
2018-07-07T04:18:50.340Z,959.38
2018-07-07T04:19:50.328Z,959.4
2018-07-07T04:20:50.319Z,959.45
2018-07-07T04:21:50.307Z,959.46
2018-07-07T04:22:50.298Z,959.49
2018-07-07T04:23:50.288Z,959.44
2018-07-07T04:24:50.278Z,959.45
2018-07-07T04:25:50.268Z,959.42
2018-07-07T04:26:50.257Z,959.45
2018-07-07T04:27:50.248Z,959.42
2018-07-07T04:28:50.236Z,959.45
2018-07-07T04:29:50.227Z,959.43
2018-07-07T04:30:50.219Z,959.45
2018-07-07T04:31:50.207Z,959.46
2018-07-07T04:32:50.197Z,959.43
2018-07-07T04:33:50.188Z,959.4
2018-07-07T04:34:50.178Z,959.45
2018-07-07T04:35:50.168Z,959.43
2018-07-07T04:36:50.158Z,959.42
2018-07-07T04:37:50.149Z,959.43
2018-07-07T04:38:50.138Z,959.47
2018-07-07T04:39:50.132Z,959.46
2018-07-07T04:40:50.119Z,959.46
2018-07-07T04:41:50.110Z,959.5
2018-07-07T04:42:50.101Z,959.46
2018-07-07T04:43:50.091Z,959.51
2018-07-07T04:44:50.081Z,959.46
2018-07-07T04:45:50.078Z,959.45
2018-07-07T04:46:50.062Z,959.46
2018-07-07T04:47:50.052Z,959.45
2018-07-07T04:48:50.045Z,959.42
2018-07-07T04:49:50.033Z,959.42
2018-07-07T04:50:50.023Z,959.44
2018-07-07T04:51:50.013Z,959.45
2018-07-07T04:52:50.005Z,959.42
2018-07-07T04:53:50.000Z,959.42
2018-07-07T04:54:49.984Z,959.49
2018-07-07T04:55:49.976Z,959.48
2018-07-07T04:56:49.966Z,959.5
2018-07-07T04:57:49.957Z,959.51
2018-07-07T04:58:49.948Z,959.54
2018-07-07T04:59:49.939Z,959.52
2018-07-07T05:00:49.930Z,959.53
2018-07-07T05:01:49.920Z,959.54
2018-07-07T05:02:49.911Z,959.54
2018-07-07T05:03:49.902Z,959.59
2018-07-07T05:04:49.895Z,959.53
2018-07-07T05:05:49.884Z,959.55
2018-07-07T05:06:49.874Z,959.56
2018-07-07T05:07:49.866Z,959.57
2018-07-07T05:08:49.858Z,959.55
2018-07-07T05:09:49.850Z,959.56
2018-07-07T05:10:49.838Z,959.55
2018-07-07T05:11:49.832Z,959.61
2018-07-07T05:12:49.819Z,959.56
2018-07-07T05:13:49.810Z,959.56
2018-07-07T05:14:49.802Z,959.59
2018-07-07T05:15:49.793Z,959.58
2018-07-07T05:16:49.784Z,959.57
2018-07-07T05:17:49.776Z,959.55
2018-07-07T05:18:49.766Z,959.59
2018-07-07T05:19:49.757Z,959.55
2018-07-07T05:20:49.749Z,959.6
2018-07-07T05:21:49.740Z,959.61
2018-07-07T05:22:49.731Z,959.6
2018-07-07T05:23:49.722Z,959.61
2018-07-07T05:24:49.714Z,959.64
2018-07-07T05:25:49.705Z,959.64
2018-07-07T05:26:49.720Z,959.66
2018-07-07T05:27:49.692Z,959.69
2018-07-07T05:28:49.682Z,959.69
2018-07-07T05:29:49.671Z,959.71
2018-07-07T05:30:49.662Z,959.71
2018-07-07T05:31:49.716Z,959.71
2018-07-07T05:32:49.646Z,959.72
2018-07-07T05:33:49.637Z,959.72
2018-07-07T05:34:49.628Z,959.65
2018-07-07T05:35:49.654Z,959.67
2018-07-07T05:36:49.613Z,959.67
2018-07-07T05:37:49.604Z,959.64
2018-07-07T05:38:49.596Z,959.65
2018-07-07T05:39:49.592Z,959.66
2018-07-07T05:40:49.583Z,959.68
2018-07-07T05:41:49.571Z,959.71
2018-07-07T05:42:49.563Z,959.7
2018-07-07T05:43:49.556Z,959.68
2018-07-07T05:44:49.550Z,959.67
2018-07-07T05:45:49.544Z,959.71
2018-07-07T05:46:49.532Z,959.71
2018-07-07T05:47:49.526Z,959.73
2018-07-07T05:48:49.517Z,959.71
2018-07-07T05:49:49.508Z,959.71
2018-07-07T05:50:49.502Z,959.68
2018-07-07T05:51:49.494Z,959.75
2018-07-07T05:52:49.489Z,959.71
2018-07-07T05:53:49.478Z,959.71
2018-07-07T05:54:49.471Z,959.74
2018-07-07T05:55:49.464Z,959.76
2018-07-07T05:56:49.455Z,959.75
2018-07-07T05:57:49.449Z,959.78
2018-07-07T05:58:49.441Z,959.75
2018-07-07T05:59:49.434Z,959.78
2018-07-07T06:00:49.428Z,959.74
2018-07-07T06:01:49.419Z,959.75
2018-07-07T06:02:49.410Z,959.74
2018-07-07T06:03:49.403Z,959.77
2018-07-07T06:04:49.397Z,959.75
2018-07-07T06:05:49.389Z,959.73
2018-07-07T06:06:49.382Z,959.72
2018-07-07T06:07:49.374Z,959.75
2018-07-07T06:08:49.368Z,959.72
2018-07-07T06:09:49.360Z,959.72
2018-07-07T06:10:49.354Z,959.64
2018-07-07T06:11:49.348Z,959.64
2018-07-07T06:12:49.340Z,959.61
2018-07-07T06:13:49.333Z,959.62
2018-07-07T06:14:49.326Z,959.65
2018-07-07T06:15:49.319Z,959.63
2018-07-07T06:16:49.312Z,959.63
2018-07-07T06:17:49.307Z,959.58
2018-07-07T06:18:49.299Z,959.62
2018-07-07T06:19:49.293Z,959.64
2018-07-07T06:20:49.287Z,959.64
2018-07-07T06:21:49.282Z,959.63
2018-07-07T06:22:49.275Z,959.62
2018-07-07T06:23:49.270Z,959.61
2018-07-07T06:24:49.263Z,959.62
2018-07-07T06:25:49.257Z,959.66
2018-07-07T06:26:49.298Z,959.65
2018-07-07T06:27:49.246Z,959.65
2018-07-07T06:28:49.240Z,959.62
2018-07-07T06:29:49.233Z,959.63
2018-07-07T06:30:49.228Z,959.67
2018-07-07T06:31:49.222Z,959.61
2018-07-07T06:32:49.216Z,959.63
2018-07-07T06:33:49.211Z,959.64
2018-07-07T06:34:49.206Z,959.66
2018-07-07T06:35:49.199Z,959.6
2018-07-07T06:36:49.195Z,959.64
2018-07-07T06:37:49.186Z,959.62
2018-07-07T06:38:49.180Z,959.65
2018-07-07T06:39:49.175Z,959.64
2018-07-07T06:40:49.169Z,959.67
2018-07-07T06:41:49.162Z,959.65
2018-07-07T06:42:49.157Z,959.7
2018-07-07T06:43:49.194Z,959.72
2018-07-07T06:44:49.144Z,959.72
2018-07-07T06:45:49.143Z,959.72
2018-07-07T06:46:49.133Z,959.72
2018-07-07T06:47:49.127Z,959.74
2018-07-07T06:48:49.169Z,959.68
2018-07-07T06:49:49.116Z,959.72
2018-07-07T06:50:49.112Z,959.7
2018-07-07T06:51:49.107Z,959.69
2018-07-07T06:52:49.101Z,959.66
2018-07-07T06:53:49.174Z,959.69
2018-07-07T06:54:49.093Z,959.68
2018-07-07T06:55:49.092Z,959.69
2018-07-07T06:56:49.087Z,959.69
2018-07-07T06:57:49.084Z,959.69
2018-07-07T06:58:49.082Z,959.67
2018-07-07T06:59:49.120Z,959.71
2018-07-07T07:00:49.077Z,959.71
2018-07-07T07:01:49.076Z,959.7
2018-07-07T07:02:49.073Z,959.72
2018-07-07T07:03:49.073Z,959.64
2018-07-07T07:04:49.080Z,959.71
2018-07-07T07:05:49.069Z,959.67
2018-07-07T07:06:49.070Z,959.76
2018-07-07T07:07:49.069Z,959.73
2018-07-07T07:08:49.070Z,959.77
2018-07-07T07:09:49.069Z,959.78
2018-07-07T07:10:49.070Z,959.78
2018-07-07T07:11:49.115Z,959.73
2018-07-07T07:12:49.073Z,959.78
2018-07-07T07:13:49.077Z,959.79
2018-07-07T07:14:49.077Z,959.8
2018-07-07T07:15:49.078Z,959.72
2018-07-07T07:16:49.078Z,959.73
2018-07-07T07:17:49.081Z,959.69
2018-07-07T07:18:49.083Z,959.7
2018-07-07T07:19:49.092Z,959.68
2018-07-07T07:20:49.088Z,959.7
2018-07-07T07:21:49.092Z,959.75
2018-07-07T07:22:49.094Z,959.77
2018-07-07T07:23:49.098Z,959.73
2018-07-07T07:24:49.100Z,959.75
2018-07-07T07:25:49.105Z,959.76
2018-07-07T07:26:49.108Z,959.79
2018-07-07T07:27:49.111Z,959.8
2018-07-07T07:28:49.116Z,959.8
2018-07-07T07:29:49.120Z,959.77
2018-07-07T07:30:49.125Z,959.76
2018-07-07T07:31:49.127Z,959.74
2018-07-07T07:32:49.181Z,959.76
2018-07-07T07:33:49.136Z,959.73
2018-07-07T07:34:49.141Z,959.74
2018-07-07T07:35:49.145Z,959.71
2018-07-07T07:36:49.158Z,959.7
2018-07-07T07:37:49.155Z,959.67
2018-07-07T07:38:49.203Z,959.62
2018-07-07T07:39:49.205Z,959.7
2018-07-07T07:40:49.168Z,959.65
2018-07-07T07:41:49.172Z,959.64
2018-07-07T07:42:49.175Z,959.66
2018-07-07T07:43:49.183Z,959.65
2018-07-07T07:44:49.183Z,959.61
2018-07-07T07:45:49.188Z,959.62
2018-07-07T07:46:49.190Z,959.61
2018-07-07T07:47:49.194Z,959.68
2018-07-07T07:48:49.198Z,959.65
2018-07-07T07:49:49.199Z,959.72
2018-07-07T07:50:49.202Z,959.74
2018-07-07T07:51:49.205Z,959.64
2018-07-07T07:52:49.276Z,959.7
2018-07-07T07:53:49.207Z,959.69
2018-07-07T07:54:49.208Z,959.7
2018-07-07T07:55:49.210Z,959.7
2018-07-07T07:56:49.210Z,959.68
2018-07-07T07:57:49.213Z,959.69
2018-07-07T07:58:49.210Z,959.71
2018-07-07T07:59:49.212Z,959.71
2018-07-07T08:00:49.215Z,959.69
2018-07-07T08:01:49.213Z,959.72
2018-07-07T08:02:49.212Z,959.7
2018-07-07T08:03:49.212Z,959.71
2018-07-07T08:04:49.264Z,959.73
2018-07-07T08:05:49.213Z,959.76
2018-07-07T08:06:49.214Z,959.71
2018-07-07T08:07:49.215Z,959.71
2018-07-07T08:08:49.216Z,959.68
2018-07-07T08:09:49.216Z,959.68
2018-07-07T08:10:49.217Z,959.7
2018-07-07T08:11:49.218Z,959.66
2018-07-07T08:12:49.218Z,959.67
2018-07-07T08:13:49.220Z,959.69
2018-07-07T08:14:49.220Z,959.67
2018-07-07T08:15:49.221Z,959.7
2018-07-07T08:16:49.224Z,959.7
2018-07-07T08:17:49.222Z,959.71
2018-07-07T08:18:49.222Z,959.75
2018-07-07T08:19:49.223Z,959.72
2018-07-07T08:20:49.224Z,959.75
2018-07-07T08:21:49.225Z,959.72
2018-07-07T08:22:49.258Z,959.74
2018-07-07T08:23:49.226Z,959.71
2018-07-07T08:24:49.227Z,959.69
2018-07-07T08:25:49.226Z,959.71
2018-07-07T08:26:49.227Z,959.76
2018-07-07T08:27:49.227Z,959.72
2018-07-07T08:28:49.228Z,959.71
2018-07-07T08:29:49.226Z,959.79
2018-07-07T08:30:49.226Z,959.72
2018-07-07T08:31:49.227Z,959.75
2018-07-07T08:32:49.227Z,959.73
2018-07-07T08:33:49.226Z,959.74
2018-07-07T08:34:49.226Z,959.71
2018-07-07T08:35:49.226Z,959.73
2018-07-07T08:36:49.232Z,959.76
2018-07-07T08:37:49.226Z,959.71
2018-07-07T08:38:49.224Z,959.74
2018-07-07T08:39:49.224Z,959.71
2018-07-07T08:40:49.223Z,959.75
2018-07-07T08:41:49.285Z,959.71
2018-07-07T08:42:49.222Z,959.66
2018-07-07T08:43:49.222Z,959.7
2018-07-07T08:44:49.220Z,959.71
2018-07-07T08:45:49.220Z,959.77
2018-07-07T08:46:49.219Z,959.79
2018-07-07T08:47:49.217Z,959.78
2018-07-07T08:48:49.217Z,959.72
2018-07-07T08:49:49.215Z,959.73
2018-07-07T08:50:49.215Z,959.73
2018-07-07T08:51:49.213Z,959.7
2018-07-07T08:52:49.213Z,959.71
2018-07-07T08:53:49.211Z,959.7
2018-07-07T08:54:49.210Z,959.71
2018-07-07T08:55:49.209Z,959.77
2018-07-07T08:56:49.208Z,959.78
2018-07-07T08:57:49.207Z,959.81
2018-07-07T08:58:49.207Z,959.77
2018-07-07T08:59:49.203Z,959.74
2018-07-07T09:00:49.203Z,959.76
2018-07-07T09:01:49.202Z,959.78
2018-07-07T09:02:49.200Z,959.8
2018-07-07T09:03:49.198Z,959.82
2018-07-07T09:04:49.197Z,959.81
2018-07-07T09:05:49.196Z,959.73
2018-07-07T09:06:49.198Z,959.72
2018-07-07T09:07:49.328Z,959.73
2018-07-07T09:08:49.192Z,959.73
2018-07-07T09:09:49.190Z,959.73
2018-07-07T09:10:49.188Z,959.76
2018-07-07T09:11:49.187Z,959.77
2018-07-07T09:12:49.186Z,959.74
2018-07-07T09:13:49.184Z,959.7
2018-07-07T09:14:49.183Z,959.68
2018-07-07T09:15:49.182Z,959.7
2018-07-07T09:16:49.180Z,959.74
2018-07-07T09:17:49.178Z,959.72
2018-07-07T09:18:49.190Z,959.74
2018-07-07T09:19:49.176Z,959.71
2018-07-07T09:20:49.175Z,959.73
2018-07-07T09:21:49.172Z,959.77
2018-07-07T09:22:49.171Z,959.74
2018-07-07T09:23:49.170Z,959.75
2018-07-07T09:24:49.168Z,959.75
2018-07-07T09:25:49.167Z,959.78
2018-07-07T09:26:49.166Z,959.78
2018-07-07T09:27:49.165Z,959.74
2018-07-07T09:28:49.162Z,959.68
2018-07-07T09:29:49.161Z,959.73
2018-07-07T09:30:49.215Z,959.7
2018-07-07T09:31:49.161Z,959.75
2018-07-07T09:32:49.157Z,959.69
2018-07-07T09:33:49.156Z,959.76
2018-07-07T09:34:49.154Z,959.74
2018-07-07T09:35:49.153Z,959.71
2018-07-07T09:36:49.152Z,959.71
2018-07-07T09:37:49.151Z,959.66
2018-07-07T09:38:49.181Z,959.75
2018-07-07T09:39:49.147Z,959.7
2018-07-07T09:40:49.145Z,959.69
2018-07-07T09:41:49.144Z,959.69
2018-07-07T09:42:49.144Z,959.75
2018-07-07T09:43:49.142Z,959.71
2018-07-07T09:44:49.141Z,959.7
2018-07-07T09:45:49.140Z,959.68
2018-07-07T09:46:49.140Z,959.7
2018-07-07T09:47:49.137Z,959.73
2018-07-07T09:48:49.136Z,959.66
2018-07-07T09:49:49.135Z,959.7
2018-07-07T09:50:49.133Z,959.71
2018-07-07T09:51:49.132Z,959.63
2018-07-07T09:52:49.130Z,959.62
2018-07-07T09:53:49.128Z,959.64
2018-07-07T09:54:49.130Z,959.6
2018-07-07T09:55:49.127Z,959.62
2018-07-07T09:56:49.125Z,959.62
2018-07-07T09:57:49.129Z,959.64
2018-07-07T09:58:49.122Z,959.63
2018-07-07T09:59:49.121Z,959.58
2018-07-07T10:00:49.121Z,959.59
2018-07-07T10:01:49.176Z,959.64
2018-07-07T10:02:49.118Z,959.57
2018-07-07T10:03:49.116Z,959.53
2018-07-07T10:04:49.114Z,959.57
2018-07-07T10:05:49.113Z,959.54
2018-07-07T10:06:49.111Z,959.54
2018-07-07T10:07:49.125Z,959.5
2018-07-07T10:08:49.108Z,959.51
2018-07-07T10:09:49.107Z,959.54
2018-07-07T10:10:49.114Z,959.53
2018-07-07T10:11:49.108Z,959.51
2018-07-07T10:12:49.102Z,959.52
2018-07-07T10:13:49.106Z,959.54
2018-07-07T10:14:49.099Z,959.56
2018-07-07T10:15:49.097Z,959.5
2018-07-07T10:16:49.096Z,959.51
2018-07-07T10:17:49.098Z,959.55
2018-07-07T10:18:49.094Z,959.51
2018-07-07T10:19:49.092Z,959.52
2018-07-07T10:20:49.141Z,959.53
2018-07-07T10:21:49.089Z,959.49
2018-07-07T10:22:49.089Z,959.45
2018-07-07T10:23:49.086Z,959.45
2018-07-07T10:24:49.089Z,959.49
2018-07-07T10:25:49.084Z,959.48
2018-07-07T10:26:49.081Z,959.46
2018-07-07T10:27:49.081Z,959.5
2018-07-07T10:28:49.080Z,959.48
2018-07-07T10:29:49.078Z,959.45
2018-07-07T10:30:49.076Z,959.46
2018-07-07T10:31:49.077Z,959.49
2018-07-07T10:32:49.074Z,959.47
2018-07-07T10:33:49.073Z,959.47
2018-07-07T10:34:49.071Z,959.4
2018-07-07T10:35:49.070Z,959.44
2018-07-07T10:36:49.069Z,959.43
2018-07-07T10:37:49.068Z,959.42
2018-07-07T10:38:49.066Z,959.42
2018-07-07T10:39:49.066Z,959.41
2018-07-07T10:40:49.065Z,959.37
2018-07-07T10:41:49.063Z,959.4
2018-07-07T10:42:49.062Z,959.4
2018-07-07T10:43:49.061Z,959.38
2018-07-07T10:44:49.061Z,959.35
2018-07-07T10:45:49.257Z,959.42
2018-07-07T10:46:49.058Z,959.43
2018-07-07T10:47:49.057Z,959.43
2018-07-07T10:48:49.079Z,959.43
2018-07-07T10:49:49.056Z,959.43
2018-07-07T10:50:49.053Z,959.41
2018-07-07T10:51:49.053Z,959.45
2018-07-07T10:52:49.051Z,959.46
2018-07-07T10:53:49.051Z,959.46
2018-07-07T10:54:49.050Z,959.47
2018-07-07T10:55:49.053Z,959.48
2018-07-07T10:56:49.046Z,959.53
2018-07-07T10:57:49.047Z,959.48
2018-07-07T10:58:49.104Z,959.51
2018-07-07T10:59:49.044Z,959.47
2018-07-07T11:00:49.044Z,959.48
2018-07-07T11:01:49.043Z,959.49
2018-07-07T11:02:49.044Z,959.49
2018-07-07T11:03:49.040Z,959.44
2018-07-07T11:04:49.040Z,959.42
2018-07-07T11:05:49.042Z,959.45
2018-07-07T11:06:49.039Z,959.51
2018-07-07T11:07:49.037Z,959.45
2018-07-07T11:08:49.037Z,959.42
2018-07-07T11:09:49.037Z,959.4
2018-07-07T11:10:49.037Z,959.44
2018-07-07T11:11:49.180Z,959.39
2018-07-07T11:12:49.034Z,959.41
2018-07-07T11:13:49.036Z,959.37
2018-07-07T11:14:49.032Z,959.33
2018-07-07T11:15:49.031Z,959.31
2018-07-07T11:16:49.032Z,959.36
2018-07-07T11:17:49.031Z,959.36
2018-07-07T11:18:49.030Z,959.34
2018-07-07T11:19:49.030Z,959.33
2018-07-07T11:20:49.030Z,959.33
2018-07-07T11:21:49.028Z,959.3
2018-07-07T11:22:49.031Z,959.29
2018-07-07T11:23:49.028Z,959.26
2018-07-07T11:24:49.027Z,959.3
2018-07-07T11:25:49.026Z,959.32
2018-07-07T11:26:49.025Z,959.35
2018-07-07T11:27:49.025Z,959.32
2018-07-07T11:28:49.024Z,959.33
2018-07-07T11:29:49.092Z,959.31
2018-07-07T11:30:49.024Z,959.29
2018-07-07T11:31:49.026Z,959.28
2018-07-07T11:32:49.022Z,959.21
2018-07-07T11:33:49.021Z,959.29
2018-07-07T11:34:49.021Z,959.26
2018-07-07T11:35:49.020Z,959.22
2018-07-07T11:36:49.164Z,959.3
2018-07-07T11:37:49.020Z,959.31
2018-07-07T11:38:49.019Z,959.28
2018-07-07T11:39:49.018Z,959.28
2018-07-07T11:40:49.017Z,959.29
2018-07-07T11:41:49.017Z,959.29
2018-07-07T11:42:49.017Z,959.25
2018-07-07T11:43:49.015Z,959.27
2018-07-07T11:44:49.016Z,959.26
2018-07-07T11:45:49.015Z,959.24
2018-07-07T11:46:49.015Z,959.26
2018-07-07T11:47:49.017Z,959.23
2018-07-07T11:48:49.016Z,959.23
2018-07-07T11:49:49.018Z,959.28
2018-07-07T11:50:49.012Z,959.21
2018-07-07T11:51:49.011Z,959.27
2018-07-07T11:52:49.012Z,959.21
2018-07-07T11:53:49.011Z,959.17
2018-07-07T11:54:49.009Z,959.2
2018-07-07T11:55:49.008Z,959.18
2018-07-07T11:56:49.008Z,959.19
2018-07-07T11:57:49.009Z,959.17
2018-07-07T11:58:49.008Z,959.19
2018-07-07T11:59:49.010Z,959.22
2018-07-07T12:00:49.006Z,959.23
2018-07-07T12:01:49.029Z,959.22
2018-07-07T12:02:49.005Z,959.22
2018-07-07T12:03:49.005Z,959.16
2018-07-07T12:04:49.134Z,959.18
2018-07-07T12:05:49.003Z,959.18
2018-07-07T12:06:49.003Z,959.21
2018-07-07T12:08:00.712Z,959.17
2018-07-07T12:08:49.003Z,959.13
2018-07-07T12:09:49.001Z,959.12
2018-07-07T12:10:49.001Z,959.09
2018-07-07T12:11:49.005Z,959.11
2018-07-07T12:12:49.000Z,959.13
2018-07-07T12:13:49.000Z,959.1
2018-07-07T12:14:48.999Z,959.15
2018-07-07T12:15:49.000Z,959.1
2018-07-07T12:16:48.998Z,959.06
2018-07-07T12:17:48.998Z,959.06
2018-07-07T12:18:49.005Z,959.08
2018-07-07T12:19:48.998Z,959.04
2018-07-07T12:20:48.996Z,959.05
2018-07-07T12:21:48.997Z,959.05
2018-07-07T12:22:48.997Z,959.03
2018-07-07T12:23:48.996Z,959.03
2018-07-07T12:24:49.051Z,959.03
2018-07-07T12:25:48.999Z,959.05
2018-07-07T12:26:48.995Z,959.06
2018-07-07T12:27:48.995Z,959.05
2018-07-07T12:28:48.994Z,959.04
2018-07-07T12:29:48.996Z,959.05
2018-07-07T12:30:48.994Z,959.04
2018-07-07T12:31:48.994Z,959.08